createdAt,value
2022-11-30T00:01:25.656Z,29.73
2022-11-30T00:03:55.622Z,28.43
2022-11-30T00:06:25.119Z,28.50
2022-11-30T00:08:56.573Z,28.40
2022-11-30T00:11:26.098Z,27.43
2022-11-30T00:13:54.304Z,28.73
2022-11-30T00:16:23.166Z,27.17
2022-11-30T00:18:52.267Z,26.20
2022-11-30T00:21:20.750Z,25.80
2022-11-30T00:23:49.490Z,26.07
2022-11-30T00:26:22.421Z,25.90
2022-11-30T00:28:50.853Z,26.43
2022-11-30T00:31:20.194Z,26.43
2022-11-30T00:33:48.483Z,26.30
2022-11-30T00:36:21.198Z,26.20
2022-11-30T00:38:50.943Z,28.33
2022-11-30T00:41:21.208Z,26.10
2022-11-30T00:43:49.789Z,29.40
2022-11-30T00:46:18.150Z,24.57
2022-11-30T00:48:46.591Z,24.63
2022-11-30T00:51:14.901Z,27.23
2022-11-30T00:53:43.547Z,27.40
2022-11-30T00:56:12.046Z,26.67
2022-11-30T00:58:42.146Z,25.80
2022-11-30T01:01:10.830Z,26.87
2022-11-30T01:03:39.107Z,27.70
2022-11-30T01:06:09.205Z,25.93
2022-11-30T01:08:38.096Z,25.70
2022-11-30T01:11:09.695Z,25.87
2022-11-30T01:13:37.953Z,27.70
2022-11-30T01:16:13.019Z,25.17
2022-11-30T01:18:41.259Z,26.07
2022-11-30T01:21:10.412Z,24.80
2022-11-30T01:23:38.738Z,23.30
2022-11-30T01:26:08.628Z,25.70
2022-11-30T01:28:37.590Z,24.40
2022-11-30T01:31:07.582Z,24.13
2022-11-30T01:33:37.358Z,25.00
2022-11-30T01:36:07.610Z,23.60
2022-11-30T01:38:37.864Z,23.90
2022-11-30T01:41:08.460Z,23.97
2022-11-30T01:43:41.856Z,24.13
2022-11-30T01:46:25.629Z,23.67
2022-11-30T01:49:01.602Z,23.70
2022-11-30T01:51:33.623Z,23.27
2022-11-30T01:54:02.623Z,24.50
2022-11-30T01:56:31.054Z,23.60
2022-11-30T01:58:59.289Z,23.57
2022-11-30T02:01:27.698Z,24.10
2022-11-30T02:04:04.345Z,24.10
2022-11-30T02:06:32.792Z,23.40
2022-11-30T02:09:02.224Z,24.23
2022-11-30T02:11:30.484Z,23.23
2022-11-30T02:14:12.237Z,24.10
2022-11-30T02:16:52.657Z,23.10
2022-11-30T02:19:53.419Z,23.17
2022-11-30T02:22:35.719Z,24.30
2022-11-30T02:25:11.060Z,23.43
2022-11-30T02:28:00.319Z,24.80
2022-11-30T02:30:34.675Z,22.57
2022-11-30T02:33:08.206Z,22.93
2022-11-30T02:35:39.713Z,22.90
2022-11-30T02:38:08.118Z,22.60
2022-11-30T02:40:37.006Z,23.70
2022-11-30T02:43:07.543Z,21.80
2022-11-30T02:45:48.603Z,21.63
2022-11-30T02:48:21.537Z,20.07
2022-11-30T02:50:54.097Z,19.67
2022-11-30T02:53:22.800Z,21.47
2022-11-30T02:55:51.237Z,22.00
2022-11-30T02:58:19.634Z,21.25
2022-11-30T03:00:49.889Z,19.90
2022-11-30T03:03:17.998Z,21.30
2022-11-30T03:05:46.138Z,20.07
2022-11-30T03:08:14.210Z,21.23
2022-11-30T03:10:42.348Z,21.43
2022-11-30T03:13:10.429Z,20.20
2022-11-30T03:15:38.653Z,19.73
2022-11-30T03:18:08.294Z,21.40
2022-11-30T03:20:36.478Z,21.03
2022-11-30T03:23:04.653Z,20.10
2022-11-30T03:25:33.179Z,20.00
2022-11-30T03:28:01.732Z,21.10
2022-11-30T03:30:29.924Z,19.60
2022-11-30T03:32:58.072Z,19.60
2022-11-30T03:35:27.655Z,20.80
2022-11-30T03:37:55.734Z,20.10
2022-11-30T03:40:23.870Z,21.00
2022-11-30T03:42:51.958Z,20.10
2022-11-30T03:45:20.111Z,20.27
2022-11-30T03:47:48.231Z,19.13
2022-11-30T03:50:16.846Z,20.63
2022-11-30T03:52:46.357Z,21.57
2022-11-30T03:55:14.495Z,19.77
2022-11-30T03:57:42.581Z,21.37
2022-11-30T04:00:12.330Z,19.87
2022-11-30T04:02:44.714Z,21.13
2022-11-30T04:05:13.552Z,20.83
2022-11-30T04:07:41.729Z,20.13
2022-11-30T04:10:12.598Z,20.50
2022-11-30T04:12:40.817Z,21.63
2022-11-30T04:15:10.126Z,20.50
2022-11-30T04:17:38.296Z,20.07
2022-11-30T04:20:07.920Z,21.57
2022-11-30T04:22:36.081Z,20.67
2022-11-30T04:25:04.394Z,21.27
2022-11-30T04:27:33.878Z,22.30
2022-11-30T04:30:01.986Z,24.33
2022-11-30T04:32:30.141Z,21.30
2022-11-30T04:34:58.366Z,22.17
2022-11-30T04:37:26.535Z,22.17
2022-11-30T04:39:54.648Z,22.37
2022-11-30T04:42:22.755Z,21.37
2022-11-30T04:44:52.240Z,21.97
2022-11-30T04:47:20.408Z,21.00
2022-11-30T04:49:48.543Z,20.73
2022-11-30T04:52:17.336Z,22.90
2022-11-30T04:54:45.925Z,21.23
2022-11-30T04:57:14.245Z,23.30
2022-11-30T04:59:42.395Z,22.63
2022-11-30T05:02:12.115Z,23.00
2022-11-30T05:04:40.303Z,23.37
2022-11-30T05:07:08.795Z,22.10
2022-11-30T05:09:37.009Z,22.50
2022-11-30T05:12:05.466Z,22.50
2022-11-30T05:14:33.650Z,22.57
2022-11-30T05:17:01.742Z,22.20
2022-11-30T05:19:31.202Z,21.87
2022-11-30T05:21:59.317Z,21.70
2022-11-30T05:24:27.524Z,21.83
2022-11-30T05:26:55.623Z,24.17
2022-11-30T05:29:23.878Z,21.97
2022-11-30T05:31:52.089Z,24.20
2022-11-30T05:34:20.215Z,23.00
2022-11-30T05:36:49.709Z,24.57
2022-11-30T05:39:17.856Z,23.30
2022-11-30T05:41:45.931Z,25.10
2022-11-30T05:44:15.100Z,22.63
2022-11-30T05:46:43.288Z,24.53
2022-11-30T05:49:11.441Z,21.70
2022-11-30T05:51:41.270Z,25.77
2022-11-30T05:54:10.805Z,23.30
2022-11-30T05:56:38.925Z,22.97
2022-11-30T05:59:11.449Z,23.87
2022-11-30T06:01:39.662Z,23.33
2022-11-30T06:04:09.077Z,23.87
2022-11-30T06:06:37.344Z,24.30
2022-11-30T06:09:05.678Z,24.20
2022-11-30T06:11:35.176Z,24.77
2022-11-30T06:14:03.441Z,23.50
2022-11-30T06:16:31.656Z,26.37
2022-11-30T06:18:59.891Z,24.77
2022-11-30T06:21:28.061Z,23.60
2022-11-30T06:23:56.171Z,23.87
2022-11-30T06:26:24.722Z,24.73
2022-11-30T06:28:54.299Z,22.97
2022-11-30T06:31:22.454Z,22.57
2022-11-30T06:33:50.768Z,22.23
2022-11-30T06:36:23.222Z,22.57
2022-11-30T06:38:51.655Z,25.83
2022-11-30T06:41:20.040Z,23.23
2022-11-30T06:43:48.247Z,22.03
2022-11-30T06:46:17.798Z,22.13
2022-11-30T06:48:49.861Z,23.70
2022-11-30T06:51:18.498Z,24.67
2022-11-30T06:53:47.222Z,22.20
2022-11-30T06:56:15.387Z,21.30
2022-11-30T06:58:43.908Z,22.50
2022-11-30T07:01:14.027Z,21.70
2022-11-30T07:03:44.604Z,22.33
2022-11-30T07:06:14.769Z,21.73
2022-11-30T07:08:44.629Z,22.40
2022-11-30T07:11:13.856Z,21.80
2022-11-30T07:13:41.960Z,21.30
2022-11-30T07:16:12.294Z,21.37
2022-11-30T07:18:40.518Z,20.77
2022-11-30T07:21:11.805Z,22.07
2022-11-30T07:23:57.399Z,22.90
2022-11-30T07:26:26.283Z,21.80
2022-11-30T07:28:58.762Z,22.10
2022-11-30T07:31:29.295Z,22.30
2022-11-30T07:33:59.164Z,20.93
2022-11-30T07:36:30.278Z,21.13
2022-11-30T07:38:58.553Z,21.20
2022-11-30T07:41:26.910Z,23.27
2022-11-30T07:43:55.044Z,21.30
2022-11-30T07:46:23.316Z,21.80
2022-11-30T07:48:51.494Z,21.63
2022-11-30T07:51:21.201Z,21.37
2022-11-30T07:53:51.124Z,21.60
2022-11-30T07:56:21.205Z,20.70
2022-11-30T07:58:55.841Z,22.23
2022-11-30T08:01:25.849Z,20.80
2022-11-30T08:03:55.038Z,20.40
2022-11-30T08:06:24.824Z,21.27
2022-11-30T08:08:57.509Z,21.07
2022-11-30T08:11:30.160Z,20.00
2022-11-30T08:13:58.789Z,21.07
2022-11-30T08:16:28.570Z,19.57
2022-11-30T08:18:56.908Z,20.47
2022-11-30T08:21:25.813Z,21.40
2022-11-30T08:23:57.144Z,19.90
2022-11-30T08:26:27.563Z,19.60
2022-11-30T08:28:56.614Z,19.70
2022-11-30T08:31:26.836Z,19.43
2022-11-30T08:33:57.261Z,18.73
2022-11-30T08:36:27.415Z,20.03
2022-11-30T08:38:58.806Z,18.80
2022-11-30T08:41:27.370Z,18.93
2022-11-30T08:43:56.035Z,19.47
2022-11-30T08:49:23.721Z,18.13
2022-11-30T08:52:16.580Z,17.53
2022-11-30T08:54:46.485Z,18.37
2022-11-30T08:57:15.831Z,18.30
2022-11-30T08:59:44.424Z,17.37
2022-11-30T09:02:13.993Z,16.63
2022-11-30T09:04:42.294Z,16.80
2022-11-30T09:07:10.853Z,17.00
2022-11-30T09:09:39.174Z,18.37
2022-11-30T09:12:09.308Z,18.30
2022-11-30T09:14:37.566Z,17.87
2022-11-30T09:17:05.759Z,18.43
2022-11-30T09:19:34.025Z,16.70
2022-11-30T09:22:02.143Z,17.70
2022-11-30T09:24:30.298Z,19.00
2022-11-30T09:26:58.562Z,16.50
2022-11-30T09:29:31.064Z,16.80
2022-11-30T09:31:59.264Z,15.93
2022-11-30T09:34:27.502Z,16.50
2022-11-30T09:36:55.728Z,16.93
2022-11-30T09:39:23.947Z,16.20
2022-11-30T09:42:25.351Z,16.80
2022-11-30T09:45:03.055Z,16.03
2022-11-30T09:47:53.530Z,16.97
2022-11-30T09:50:25.695Z,18.20
2022-11-30T09:52:56.162Z,17.37
2022-11-30T09:55:28.828Z,17.30
2022-11-30T09:58:01.449Z,17.70
2022-11-30T10:00:31.992Z,17.03
2022-11-30T10:03:04.081Z,16.77
2022-11-30T10:05:46.874Z,15.93
2022-11-30T10:08:29.499Z,15.43
2022-11-30T10:11:11.125Z,15.90
2022-11-30T10:13:52.671Z,16.60
2022-11-30T10:16:30.591Z,15.27
2022-11-30T10:19:05.548Z,17.10
2022-11-30T10:21:52.982Z,16.67
2022-11-30T10:24:36.186Z,15.50
2022-11-30T10:27:27.115Z,15.20
2022-11-30T10:29:56.427Z,16.17
2022-11-30T10:32:33.277Z,16.63
2022-11-30T10:35:14.494Z,15.50
2022-11-30T10:37:43.495Z,16.40
2022-11-30T10:40:18.749Z,16.07
2022-11-30T10:42:51.284Z,16.30
2022-11-30T10:45:22.254Z,16.10
2022-11-30T10:48:00.677Z,15.77
2022-11-30T10:50:31.486Z,14.63
2022-11-30T10:53:01.802Z,14.40
2022-11-30T10:55:32.611Z,15.23
2022-11-30T10:58:07.590Z,14.97
2022-11-30T11:00:35.713Z,13.77
2022-11-30T11:03:24.234Z,16.13
2022-11-30T11:06:06.129Z,14.30
2022-11-30T11:08:34.423Z,15.37
2022-11-30T11:11:02.604Z,13.80
2022-11-30T11:13:39.087Z,13.23
2022-11-30T11:16:09.003Z,14.00
2022-11-30T11:18:53.822Z,13.97
2022-11-30T11:21:24.047Z,13.10
2022-11-30T11:23:54.102Z,13.20
2022-11-30T11:26:25.289Z,13.10
2022-11-30T11:28:55.681Z,12.93
2022-11-30T11:31:36.250Z,13.73
2022-11-30T11:34:09.904Z,13.53
2022-11-30T11:36:38.383Z,13.57
2022-11-30T11:39:26.772Z,12.90
2022-11-30T11:41:55.075Z,13.20
2022-11-30T11:44:27.354Z,12.97
2022-11-30T11:46:59.612Z,11.37
2022-11-30T11:49:31.158Z,11.87
2022-11-30T11:52:03.509Z,11.57
2022-11-30T11:54:36.809Z,11.80
2022-11-30T11:57:09.540Z,11.00
2022-11-30T11:59:43.294Z,11.40
2022-11-30T12:02:23.698Z,11.50
2022-11-30T12:04:56.548Z,11.70
2022-11-30T12:07:33.409Z,11.65
2022-11-30T12:10:43.195Z,11.30
2022-11-30T12:13:01.033Z,12.07
2022-11-30T12:15:36.907Z,11.33
2022-11-30T12:18:22.310Z,10.93
2022-11-30T12:20:58.765Z,11.20
2022-11-30T12:23:38.950Z,11.27
2022-11-30T12:26:17.806Z,10.50
2022-11-30T12:28:57.282Z,11.03
2022-11-30T12:31:34.661Z,10.57
2022-11-30T12:34:11.409Z,10.50
2022-11-30T12:36:53.670Z,10.77
2022-11-30T12:39:32.122Z,10.93
2022-11-30T12:42:04.736Z,10.50
2022-11-30T12:44:46.861Z,9.30
2022-11-30T12:47:29.549Z,9.03
2022-11-30T12:50:20.050Z,8.50
2022-11-30T12:52:56.590Z,8.70
2022-11-30T12:55:34.267Z,8.90
2022-11-30T12:58:14.607Z,8.20
2022-11-30T13:00:57.261Z,9.07
2022-11-30T13:03:48.021Z,8.83
2022-11-30T13:06:21.499Z,9.53
2022-11-30T13:08:59.949Z,10.67
2022-11-30T13:11:33.177Z,11.17
2022-11-30T13:14:02.117Z,10.80
2022-11-30T13:16:32.574Z,10.87
2022-11-30T13:19:09.201Z,11.67
2022-11-30T13:21:42.236Z,12.70
2022-11-30T13:24:19.407Z,10.90
2022-11-30T13:26:53.071Z,11.50
2022-11-30T13:29:55.244Z,11.57
2022-11-30T13:35:40.831Z,11.13
2022-11-30T13:41:10.795Z,11.30
2022-11-30T13:43:47.816Z,11.50
2022-11-30T13:46:20.014Z,11.73
2022-11-30T13:48:49.374Z,11.63
2022-11-30T13:51:35.796Z,11.60
2022-11-30T13:54:37.062Z,11.47
2022-11-30T13:57:18.113Z,11.23
2022-11-30T13:59:48.075Z,10.70
2022-11-30T14:02:59.190Z,10.67
2022-11-30T14:05:38.883Z,11.00
2022-11-30T14:08:33.422Z,10.97
2022-11-30T14:11:52.646Z,11.87
2022-11-30T14:14:49.378Z,12.33
2022-11-30T14:17:28.157Z,11.30
2022-11-30T14:20:00.546Z,11.37
2022-11-30T14:22:30.900Z,12.97
2022-11-30T14:25:00.049Z,11.67
2022-11-30T14:27:33.202Z,11.27
2022-11-30T14:30:09.545Z,11.15
2022-11-30T14:32:48.406Z,10.77
2022-11-30T14:35:22.015Z,11.00
2022-11-30T14:41:03.544Z,11.20
2022-11-30T14:43:32.836Z,11.00
2022-11-30T14:46:08.157Z,12.05
2022-11-30T14:48:39.850Z,12.33
2022-11-30T14:51:12.173Z,11.40
2022-11-30T14:53:49.818Z,12.23
2022-11-30T14:56:27.003Z,10.80
2022-11-30T14:59:05.075Z,11.60
2022-11-30T15:01:34.995Z,11.93
2022-11-30T15:04:18.732Z,12.03
2022-11-30T15:06:47.161Z,10.90
2022-11-30T15:09:19.236Z,11.73
2022-11-30T15:11:49.706Z,11.60
2022-11-30T15:14:18.200Z,11.73
2022-11-30T15:16:54.005Z,11.80
2022-11-30T15:19:25.142Z,11.30
2022-11-30T15:21:54.233Z,12.40
2022-11-30T15:24:22.789Z,12.17
2022-11-30T15:26:56.251Z,12.20
2022-11-30T15:29:28.960Z,11.23
2022-11-30T15:32:00.602Z,12.63
2022-11-30T15:34:35.655Z,12.33
2022-11-30T15:37:04.247Z,11.97
2022-11-30T15:39:33.180Z,11.50
2022-11-30T15:42:02.744Z,11.40
2022-11-30T15:44:41.671Z,12.70
2022-11-30T15:47:32.764Z,12.30
2022-11-30T15:50:01.201Z,12.80
2022-11-30T15:52:30.867Z,12.40
2022-11-30T15:55:03.219Z,13.90
2022-11-30T15:58:01.623Z,13.13
2022-11-30T16:00:30.571Z,12.10
2022-11-30T16:03:10.691Z,12.83
2022-11-30T16:05:40.363Z,12.23
2022-11-30T16:08:16.483Z,13.20
2022-11-30T16:10:44.917Z,11.63
2022-11-30T16:13:15.600Z,11.03
2022-11-30T16:15:47.478Z,12.10
2022-11-30T16:18:19.277Z,12.43
2022-11-30T16:20:50.390Z,13.30
2022-11-30T16:23:19.829Z,13.20
2022-11-30T16:25:49.673Z,12.30
2022-11-30T16:28:19.517Z,12.63
2022-11-30T16:30:47.973Z,11.60
2022-11-30T16:33:19.666Z,11.13
2022-11-30T16:35:55.673Z,13.40
2022-11-30T16:38:25.232Z,12.67
2022-11-30T16:40:55.684Z,12.00
2022-11-30T16:43:26.128Z,12.90
2022-11-30T16:45:54.409Z,13.40
2022-11-30T16:48:23.919Z,12.53
2022-11-30T16:50:52.856Z,13.33
2022-11-30T16:53:23.787Z,13.93
2022-11-30T16:55:54.314Z,14.50
2022-11-30T16:58:23.247Z,13.53
2022-11-30T17:00:51.592Z,14.27
2022-11-30T17:03:24.838Z,13.30
2022-11-30T17:05:53.078Z,14.90
2022-11-30T17:08:21.678Z,18.03
2022-11-30T17:10:53.479Z,13.97
2022-11-30T17:13:22.296Z,14.27
2022-11-30T17:15:51.964Z,13.97
2022-11-30T17:18:20.109Z,13.07
2022-11-30T17:20:49.640Z,14.30
2022-11-30T17:23:17.853Z,13.47
2022-11-30T17:25:47.203Z,14.80
2022-11-30T17:28:15.408Z,14.80
2022-11-30T17:30:43.729Z,14.67
2022-11-30T17:33:11.981Z,14.57
2022-11-30T17:35:40.663Z,15.07
2022-11-30T17:38:10.216Z,15.73
2022-11-30T17:40:41.910Z,15.40
2022-11-30T17:43:10.122Z,16.17
2022-11-30T17:45:40.337Z,15.57
2022-11-30T17:48:08.556Z,15.20
2022-11-30T17:50:39.299Z,16.07
2022-11-30T17:53:09.975Z,15.73
2022-11-30T17:55:40.278Z,14.83
2022-11-30T17:58:08.441Z,15.00
2022-11-30T18:00:36.847Z,15.93
2022-11-30T18:03:05.381Z,16.37
2022-11-30T18:05:34.373Z,15.70
2022-11-30T18:08:02.773Z,14.80
2022-11-30T18:10:32.339Z,15.07
2022-11-30T18:13:00.592Z,15.97
2022-11-30T18:15:28.739Z,15.40
2022-11-30T18:18:01.108Z,16.40
2022-11-30T18:20:30.457Z,15.00
2022-11-30T18:22:58.895Z,14.67
2022-11-30T18:25:27.138Z,16.13
2022-11-30T18:27:56.783Z,15.70
2022-11-30T18:30:25.070Z,14.77
2022-11-30T18:32:53.201Z,16.23
2022-11-30T18:35:21.318Z,15.47
2022-11-30T18:37:49.478Z,14.00
2022-11-30T18:40:17.934Z,13.73
2022-11-30T18:42:48.657Z,13.70
2022-11-30T18:45:18.227Z,13.10
2022-11-30T18:47:46.362Z,13.90
2022-11-30T18:50:14.538Z,13.60
2022-11-30T18:52:42.626Z,13.17
2022-11-30T18:55:11.485Z,13.20
2022-11-30T18:57:39.588Z,12.03
2022-11-30T19:00:10.320Z,12.00
2022-11-30T19:02:40.049Z,12.27
2022-11-30T19:05:13.359Z,12.73
2022-11-30T19:07:41.791Z,10.90
2022-11-30T19:10:10.809Z,11.37
2022-11-30T19:12:39.085Z,11.83
2022-11-30T19:15:08.484Z,12.30
2022-11-30T19:17:36.635Z,12.67
2022-11-30T19:20:07.512Z,11.80
2022-11-30T19:22:35.661Z,12.00
2022-11-30T19:25:03.841Z,12.13
2022-11-30T19:27:32.137Z,12.27
2022-11-30T19:30:00.910Z,11.97
2022-11-30T19:32:29.071Z,11.27
2022-11-30T19:34:57.213Z,11.10
2022-11-30T19:37:26.800Z,11.57
2022-11-30T19:39:57.723Z,11.13
2022-11-30T19:42:25.872Z,10.93
2022-11-30T19:44:55.813Z,11.83
2022-11-30T19:47:23.950Z,11.10
2022-11-30T19:49:52.049Z,11.03
2022-11-30T19:52:20.931Z,11.80
2022-11-30T19:54:50.571Z,10.40
2022-11-30T19:57:18.829Z,10.63
2022-11-30T19:59:47.512Z,9.53
2022-11-30T20:02:15.690Z,10.27
2022-11-30T20:04:44.052Z,10.57
2022-11-30T20:07:13.492Z,10.10
2022-11-30T20:09:41.714Z,9.90
2022-11-30T20:12:11.200Z,10.10
2022-11-30T20:14:39.371Z,9.00
2022-11-30T20:17:08.187Z,10.67
2022-11-30T20:19:36.305Z,10.73
2022-11-30T20:22:06.297Z,9.73
2022-11-30T20:24:34.632Z,10.77
2022-11-30T20:27:03.645Z,9.57
2022-11-30T20:29:33.157Z,10.20
2022-11-30T20:32:01.279Z,10.00
2022-11-30T20:34:34.340Z,10.87
2022-11-30T20:37:04.090Z,10.07
2022-11-30T20:39:32.744Z,11.07
2022-11-30T20:42:00.855Z,9.73
2022-11-30T20:44:29.020Z,10.47
2022-11-30T20:46:58.504Z,10.80
2022-11-30T20:49:26.766Z,10.93
2022-11-30T20:51:54.902Z,9.53
2022-11-30T20:54:23.190Z,10.50
2022-11-30T20:56:51.622Z,10.80
2022-11-30T20:59:23.719Z,10.83
2022-11-30T21:01:52.089Z,11.87
2022-11-30T21:04:21.693Z,11.33
2022-11-30T21:06:49.818Z,10.97
2022-11-30T21:09:19.381Z,12.27
2022-11-30T21:11:49.529Z,11.53
2022-11-30T21:14:18.679Z,10.87
2022-11-30T21:16:47.106Z,12.50
2022-11-30T21:19:16.179Z,12.13
2022-11-30T21:21:46.244Z,11.80
2022-11-30T21:24:14.388Z,11.53
2022-11-30T21:26:43.723Z,10.93
2022-11-30T21:29:13.285Z,11.43
2022-11-30T21:31:41.628Z,10.47
2022-11-30T21:34:10.040Z,11.03
2022-11-30T21:36:38.526Z,10.53
2022-11-30T21:39:08.446Z,11.03
2022-11-30T21:41:38.733Z,11.50
2022-11-30T21:44:08.701Z,10.77
2022-11-30T21:46:36.931Z,11.00
2022-11-30T21:49:05.837Z,11.73
2022-11-30T21:51:34.241Z,10.63
2022-11-30T21:54:04.089Z,10.63
2022-11-30T21:56:35.965Z,10.77
2022-11-30T21:59:06.567Z,25.10
2022-11-30T22:01:36.398Z,14.23
2022-11-30T22:04:07.016Z,11.60
2022-11-30T22:06:37.193Z,11.52
2022-11-30T22:09:08.672Z,12.17
2022-11-30T22:11:40.249Z,12.43
2022-11-30T22:14:11.407Z,10.90
2022-11-30T22:16:39.813Z,10.47
2022-11-30T22:19:08.579Z,11.50
2022-11-30T22:21:39.600Z,11.43
2022-11-30T22:24:11.759Z,11.80
2022-11-30T22:26:42.716Z,12.13
2022-11-30T22:29:14.663Z,11.47
2022-11-30T22:31:45.070Z,11.77
2022-11-30T22:34:16.443Z,13.30
2022-11-30T22:36:45.876Z,13.87
2022-11-30T22:39:15.444Z,12.27
2022-11-30T22:41:49.954Z,12.87
2022-11-30T22:44:22.688Z,13.80
2022-11-30T22:46:50.978Z,14.97
2022-11-30T22:49:21.642Z,14.43
2022-11-30T22:51:50.851Z,13.60
2022-11-30T22:54:19.177Z,13.00
2022-11-30T22:56:48.700Z,13.83
2022-11-30T22:59:17.236Z,14.40
2022-11-30T23:01:47.754Z,13.50
2022-11-30T23:04:17.728Z,13.63
2022-11-30T23:06:49.620Z,13.70
2022-11-30T23:09:19.614Z,13.90
2022-11-30T23:11:49.879Z,13.80
2022-11-30T23:14:18.754Z,13.30
2022-11-30T23:16:47.216Z,13.57
2022-11-30T23:19:16.446Z,14.00
2022-11-30T23:21:45.909Z,13.53
2022-11-30T23:24:16.818Z,13.53
2022-11-30T23:26:45.031Z,12.70
2022-11-30T23:29:16.315Z,13.30
2022-11-30T23:31:45.815Z,15.00
2022-11-30T23:34:16.478Z,14.30
2022-11-30T23:36:44.632Z,14.20
2022-11-30T23:39:15.193Z,13.90
2022-11-30T23:41:43.630Z,13.30
2022-11-30T23:44:11.964Z,13.93
2022-11-30T23:46:44.933Z,13.97
2022-11-30T23:49:14.942Z,14.53
2022-11-30T23:51:43.411Z,14.50
2022-11-30T23:54:11.522Z,13.20
2022-11-30T23:56:39.800Z,14.50
2022-11-30T23:59:07.937Z,16.40
